createdAt,value
2022-10-17T00:01:05.123Z,101970.38
2022-10-17T00:03:32.338Z,101978.78
2022-10-17T00:06:05.758Z,101986.69
2022-10-17T00:08:32.992Z,101987.81
2022-10-17T00:11:04.328Z,101976.81
2022-10-17T00:16:00.603Z,101978.81
2022-10-17T00:18:27.808Z,101978.22
2022-10-17T00:20:55.004Z,101972.00
2022-10-17T00:23:23.640Z,101971.13
2022-10-17T00:25:58.715Z,101976.72
2022-10-17T00:28:25.977Z,101979.44
2022-10-17T00:30:57.074Z,101977.78
2022-10-17T00:33:24.448Z,101976.03
2022-10-17T00:35:51.745Z,101974.44
2022-10-17T00:38:18.978Z,101972.88
2022-10-17T00:40:47.589Z,101970.69
2022-10-17T00:43:18.128Z,101970.41
2022-10-17T00:45:45.336Z,101969.53
2022-10-17T00:48:14.179Z,101959.88
2022-10-17T00:50:45.124Z,101954.00
2022-10-17T00:53:13.189Z,101966.59
2022-10-17T00:55:47.355Z,101971.66
2022-10-17T00:58:16.924Z,101976.63
2022-10-17T01:00:45.819Z,101989.13
2022-10-17T01:03:13.595Z,101987.41
2022-10-17T01:05:42.163Z,101994.66
2022-10-17T01:08:10.764Z,101995.94
2022-10-17T01:10:50.062Z,102001.03
2022-10-17T01:13:25.268Z,102009.00
2022-10-17T01:16:04.568Z,102020.13
2022-10-17T01:18:46.743Z,102024.59
2022-10-17T01:21:39.812Z,102028.19
2022-10-17T01:24:40.820Z,102031.91
2022-10-17T01:27:38.582Z,102027.56
2022-10-17T01:30:51.917Z,102023.44
2022-10-17T01:33:30.551Z,102005.41
2022-10-17T01:36:05.878Z,101998.44
2022-10-17T01:38:43.547Z,101997.13
2022-10-17T01:41:18.530Z,101994.06
2022-10-17T01:43:52.905Z,101974.97
2022-10-17T01:46:26.989Z,101981.38
2022-10-17T01:48:59.694Z,101981.38
2022-10-17T01:51:30.780Z,101964.72
2022-10-17T01:54:02.725Z,101979.06
2022-10-17T01:56:32.928Z,101968.56
2022-10-17T01:59:04.904Z,101964.03
2022-10-17T02:01:36.911Z,101970.97
2022-10-17T02:04:08.972Z,101970.16
2022-10-17T02:06:36.564Z,101968.84
2022-10-17T02:09:16.938Z,101964.56
2022-10-17T02:11:49.719Z,101962.63
2022-10-17T02:14:29.617Z,101948.97
2022-10-17T02:17:08.121Z,101950.63
2022-10-17T02:19:46.426Z,101956.22
2022-10-17T02:22:27.871Z,101954.56
2022-10-17T02:25:03.412Z,101939.88
2022-10-17T02:27:42.193Z,101936.78
2022-10-17T02:30:15.511Z,101948.06
2022-10-17T02:32:50.393Z,101949.06
2022-10-17T02:35:25.040Z,101955.88
2022-10-17T02:37:54.801Z,101961.91
2022-10-17T02:40:24.582Z,101955.56
2022-10-17T02:42:54.933Z,101954.03
2022-10-17T02:45:26.643Z,101956.91
2022-10-17T02:47:59.511Z,101967.28
2022-10-17T02:50:38.941Z,101963.38
2022-10-17T02:53:12.399Z,101981.41
2022-10-17T02:55:45.807Z,101982.97
2022-10-17T02:58:18.878Z,101985.81
2022-10-17T03:00:46.373Z,101989.50
2022-10-17T03:03:22.277Z,101999.13
2022-10-17T03:05:51.838Z,101987.94
2022-10-17T03:08:19.296Z,101996.84
2022-10-17T03:10:46.989Z,101999.19
2022-10-17T03:13:14.297Z,102008.88
2022-10-17T03:15:41.611Z,102014.06
2022-10-17T03:18:09.395Z,102021.78
2022-10-17T03:20:36.827Z,102023.25
2022-10-17T03:23:05.437Z,102025.81
2022-10-17T03:25:33.065Z,102031.09
2022-10-17T03:28:00.886Z,102028.31
2022-10-17T03:30:28.973Z,102031.53
2022-10-17T03:32:57.700Z,102039.56
2022-10-17T03:35:25.007Z,102041.78
2022-10-17T03:37:54.909Z,102037.00
2022-10-17T03:40:24.742Z,102043.03
2022-10-17T03:42:51.923Z,102052.94
2022-10-17T03:45:19.274Z,102062.44
2022-10-17T03:47:47.830Z,102062.44
2022-10-17T03:50:15.790Z,102063.22
2022-10-17T03:52:46.919Z,102063.94
2022-10-17T03:55:14.311Z,102073.50
2022-10-17T03:57:45.397Z,102071.78
2022-10-17T04:00:14.328Z,102074.59
2022-10-17T04:02:41.686Z,102084.09
2022-10-17T04:05:13.455Z,102080.81
2022-10-17T04:07:41.369Z,102081.22
2022-10-17T04:10:10.053Z,102078.44
2022-10-17T04:12:37.625Z,102078.88
2022-10-17T04:15:07.575Z,102073.25
2022-10-17T04:17:38.080Z,102064.44
2022-10-17T04:20:08.016Z,102060.41
2022-10-17T04:22:35.236Z,102063.63
2022-10-17T04:25:02.936Z,102056.53
2022-10-17T04:27:49.220Z,102059.34
2022-10-17T04:30:17.834Z,102059.78
2022-10-17T04:32:45.730Z,102055.66
2022-10-17T04:35:17.736Z,102054.88
2022-10-17T04:37:49.656Z,102056.09
2022-10-17T04:40:18.857Z,102056.47
2022-10-17T04:42:46.919Z,102057.66
2022-10-17T04:45:19.682Z,102062.91
2022-10-17T04:47:49.498Z,102047.72
2022-10-17T04:50:16.908Z,102045.28
2022-10-17T04:53:03.139Z,102051.63
2022-10-17T04:55:30.579Z,102046.53
2022-10-17T04:57:57.967Z,102042.97
2022-10-17T05:00:26.627Z,102054.16
2022-10-17T05:03:11.807Z,102054.50
2022-10-17T05:05:39.746Z,102051.72
2022-10-17T05:08:07.642Z,102041.31
2022-10-17T05:10:37.114Z,102041.75
2022-10-17T05:13:05.656Z,102045.28
2022-10-17T05:15:35.974Z,102053.31
2022-10-17T05:18:03.998Z,102048.41
2022-10-17T05:20:31.719Z,102046.47
2022-10-17T05:22:59.147Z,102041.31
2022-10-17T05:25:30.380Z,102038.50
2022-10-17T05:27:57.553Z,102040.50
2022-10-17T05:30:25.041Z,102032.13
2022-10-17T05:32:58.781Z,102032.47
2022-10-17T05:35:26.172Z,102025.31
2022-10-17T05:37:53.642Z,102038.06
2022-10-17T05:40:22.310Z,102032.97
2022-10-17T05:42:52.831Z,102030.19
2022-10-17T05:45:20.266Z,102028.63
2022-10-17T05:47:47.470Z,102039.69
2022-10-17T05:50:16.313Z,102042.09
2022-10-17T05:52:59.338Z,102036.50
2022-10-17T05:55:26.687Z,102046.47
2022-10-17T05:57:53.883Z,102044.91
2022-10-17T06:00:22.559Z,102038.94
2022-10-17T06:02:56.523Z,102040.88
2022-10-17T06:05:26.138Z,102039.69
2022-10-17T06:07:56.997Z,102037.22
2022-10-17T06:10:27.107Z,102035.66
2022-10-17T06:12:55.235Z,102039.53
2022-10-17T06:15:22.419Z,102039.53
2022-10-17T06:17:56.575Z,102041.09
2022-10-17T06:20:23.922Z,102051.44
2022-10-17T06:22:53.155Z,102059.78
2022-10-17T06:25:33.696Z,102072.84
2022-10-17T06:28:01.558Z,102069.91
2022-10-17T06:30:28.859Z,102078.53
2022-10-17T06:32:56.811Z,102090.09
2022-10-17T06:35:25.100Z,102076.75
2022-10-17T06:37:53.794Z,102077.81
2022-10-17T06:40:21.994Z,102072.50
2022-10-17T06:42:49.598Z,102085.63
2022-10-17T06:45:38.993Z,102083.84
2022-10-17T06:48:17.141Z,102063.78
2022-10-17T06:50:52.283Z,102064.13
2022-10-17T06:53:28.648Z,102062.03
2022-10-17T06:56:27.014Z,102063.97
2022-10-17T06:59:09.278Z,102059.91
2022-10-17T07:01:38.930Z,102040.88
2022-10-17T07:04:08.290Z,102032.16
2022-10-17T07:06:35.679Z,102027.97
2022-10-17T07:09:10.348Z,102012.88
2022-10-17T07:11:38.134Z,102009.09
2022-10-17T07:14:05.794Z,102006.56
2022-10-17T07:16:34.025Z,101997.16
2022-10-17T07:19:07.714Z,102001.88
2022-10-17T07:21:39.219Z,101988.19
2022-10-17T07:24:09.622Z,101968.53
2022-10-17T07:26:37.103Z,101956.31
2022-10-17T07:29:04.909Z,101939.19
2022-10-17T07:31:42.128Z,101937.69
2022-10-17T07:34:09.386Z,101934.56
2022-10-17T07:36:36.676Z,101923.22
2022-10-17T07:39:05.908Z,101907.72
2022-10-17T07:41:36.668Z,101910.28
2022-10-17T07:44:05.447Z,101900.28
2022-10-17T07:46:37.466Z,101892.03
2022-10-17T07:49:05.933Z,101885.94
2022-10-17T07:51:34.134Z,101878.31
2022-10-17T07:54:01.508Z,101864.72
2022-10-17T07:56:28.782Z,101857.19
2022-10-17T08:01:24.937Z,101844.38
2022-10-17T08:03:52.153Z,101844.72
2022-10-17T08:06:19.424Z,101837.59
2022-10-17T08:08:46.844Z,101837.03
2022-10-17T08:11:14.877Z,101841.84
2022-10-17T08:13:42.226Z,101841.50
2022-10-17T08:16:12.974Z,101837.91
2022-10-17T08:18:41.843Z,101832.59
2022-10-17T08:21:10.036Z,101830.94
2022-10-17T08:23:37.625Z,101824.94
2022-10-17T08:26:06.764Z,101819.19
2022-10-17T08:28:35.633Z,101808.53
2022-10-17T08:31:04.240Z,101799.09
2022-10-17T08:33:33.106Z,101788.19
2022-10-17T08:36:00.497Z,101791.34
2022-10-17T08:38:30.054Z,101781.59
2022-10-17T08:41:01.756Z,101787.22
2022-10-17T08:43:44.799Z,101778.03
2022-10-17T08:46:12.429Z,101774.94
2022-10-17T08:48:46.297Z,101766.97
2022-10-17T08:51:20.065Z,101764.44
2022-10-17T08:53:51.912Z,101763.53
2022-10-17T08:56:30.333Z,101767.81
2022-10-17T08:59:12.683Z,101767.38
2022-10-17T09:01:48.389Z,101763.63
2022-10-17T09:04:41.738Z,101774.16
2022-10-17T09:07:17.121Z,101768.66
2022-10-17T09:09:55.336Z,101762.09
2022-10-17T09:12:31.852Z,101761.94
2022-10-17T09:15:34.256Z,101760.03
2022-10-17T09:18:07.629Z,101749.78
2022-10-17T09:20:40.481Z,101734.09
2022-10-17T09:23:15.842Z,101726.44
2022-10-17T09:25:45.552Z,101741.19
2022-10-17T09:28:17.425Z,101742.19
2022-10-17T09:30:47.299Z,101729.75
2022-10-17T09:33:28.359Z,101737.03
2022-10-17T09:36:10.747Z,101738.25
2022-10-17T09:38:41.559Z,101747.06
2022-10-17T09:41:43.072Z,101751.22
2022-10-17T09:44:14.650Z,101738.44
2022-10-17T09:46:49.569Z,101738.66
2022-10-17T09:49:19.741Z,101744.38
2022-10-17T09:51:48.787Z,101748.81
2022-10-17T09:54:20.630Z,101749.31
2022-10-17T09:56:58.060Z,101758.47
2022-10-17T09:59:34.045Z,101755.50
2022-10-17T10:02:18.273Z,101761.09
2022-10-17T10:05:08.838Z,101769.88
2022-10-17T10:07:39.020Z,101780.69
2022-10-17T10:10:22.425Z,101776.31
2022-10-17T10:13:03.423Z,101774.91
2022-10-17T10:15:34.363Z,101776.56
2022-10-17T10:18:01.828Z,101768.06
2022-10-17T10:20:33.350Z,101765.53
2022-10-17T10:23:22.860Z,101772.69
2022-10-17T10:25:55.117Z,101768.81
2022-10-17T10:28:27.249Z,101782.63
2022-10-17T10:30:56.370Z,101784.19
2022-10-17T10:33:27.577Z,101797.13
2022-10-17T10:35:58.212Z,101810.00
2022-10-17T10:38:27.523Z,101802.97
2022-10-17T10:40:57.577Z,101800.16
2022-10-17T10:43:31.403Z,101794.97
2022-10-17T10:45:59.373Z,101803.66
2022-10-17T10:48:30.415Z,101803.53
2022-10-17T10:51:01.637Z,101806.22
2022-10-17T10:53:36.935Z,101809.16
2022-10-17T10:56:09.842Z,101814.16
2022-10-17T10:58:44.561Z,101809.66
2022-10-17T11:01:19.290Z,101796.19
2022-10-17T11:03:57.647Z,101805.25
2022-10-17T11:06:28.906Z,101813.03
2022-10-17T11:09:11.312Z,101836.06
2022-10-17T11:11:42.369Z,101828.03
2022-10-17T11:14:14.856Z,101833.38
2022-10-17T11:16:47.613Z,101860.09
2022-10-17T11:19:20.597Z,101859.50
2022-10-17T11:22:07.555Z,101840.16
2022-10-17T11:24:44.539Z,101828.91
2022-10-17T11:27:11.912Z,101857.09
2022-10-17T11:29:41.277Z,101870.28
2022-10-17T11:32:13.474Z,101869.94
2022-10-17T11:34:44.432Z,101909.41
2022-10-17T11:37:17.346Z,101921.31
2022-10-17T11:39:51.783Z,101946.56
2022-10-17T11:42:22.581Z,101975.56
2022-10-17T11:44:53.715Z,101993.44
2022-10-17T11:47:31.542Z,102020.91
2022-10-17T11:52:57.244Z,102068.41
2022-10-17T11:55:27.805Z,102088.50
2022-10-17T11:58:06.043Z,102112.91
2022-10-17T12:00:50.039Z,102133.91
2022-10-17T12:03:33.488Z,102168.69
2022-10-17T12:06:12.248Z,102198.81
2022-10-17T12:08:46.804Z,102242.97
2022-10-17T12:11:27.224Z,102262.50
2022-10-17T12:13:55.469Z,102297.84
2022-10-17T12:16:50.056Z,102365.34
2022-10-17T12:19:32.094Z,102354.88
2022-10-17T12:22:21.356Z,102309.88
2022-10-17T12:25:00.369Z,102357.03
2022-10-17T12:27:41.759Z,102410.81
2022-10-17T12:30:23.786Z,102445.13
2022-10-17T12:33:06.661Z,102474.81
2022-10-17T12:35:37.067Z,102484.94
2022-10-17T12:38:28.477Z,102502.56
2022-10-17T12:41:00.069Z,102510.69
2022-10-17T12:43:58.864Z,102523.41
2022-10-17T12:46:47.695Z,102543.06
2022-10-17T12:49:39.725Z,102542.50
2022-10-17T12:52:54.099Z,102545.44
2022-10-17T12:55:24.829Z,102540.44
2022-10-17T12:57:56.638Z,102549.47
2022-10-17T13:00:31.944Z,102588.97
2022-10-17T13:03:06.532Z,102629.16
2022-10-17T13:05:36.193Z,102648.00
2022-10-17T13:08:06.822Z,102648.44
2022-10-17T13:10:40.649Z,102666.38
2022-10-17T13:13:16.773Z,102683.28
2022-10-17T13:15:48.576Z,102703.38
2022-10-17T13:18:21.348Z,102710.25
2022-10-17T13:20:56.773Z,102722.41
2022-10-17T13:23:24.517Z,102737.91
2022-10-17T13:26:03.534Z,102752.34
2022-10-17T13:28:30.742Z,102770.53
2022-10-17T13:30:59.508Z,102776.28
2022-10-17T13:33:33.397Z,102790.28
2022-10-17T13:36:02.184Z,102811.34
2022-10-17T13:38:32.591Z,102835.06
2022-10-17T13:41:22.967Z,102849.16
2022-10-17T13:43:49.459Z,102867.66
2022-10-17T13:46:37.391Z,102902.41
2022-10-17T13:49:24.448Z,102947.38
2022-10-17T13:51:56.172Z,102962.28
2022-10-17T13:54:33.500Z,102994.97
2022-10-17T13:57:02.894Z,103032.88
2022-10-17T13:59:35.864Z,103063.56
2022-10-17T14:02:04.781Z,103091.31
2022-10-17T14:04:44.716Z,103126.69
2022-10-17T14:07:26.100Z,103154.19
2022-10-17T14:09:53.787Z,103176.03
2022-10-17T14:12:23.892Z,103204.66
2022-10-17T14:15:10.495Z,103227.25
2022-10-17T14:17:40.224Z,103260.28
2022-10-17T14:20:51.620Z,103294.94
2022-10-17T14:23:22.758Z,103335.25
2022-10-17T14:26:05.020Z,103376.81
2022-10-17T14:28:32.259Z,103399.00
2022-10-17T14:31:11.522Z,103412.78
2022-10-17T14:33:49.669Z,103436.16
2022-10-17T14:36:19.362Z,103460.31
2022-10-17T14:38:48.096Z,103471.59
2022-10-17T14:41:42.046Z,103488.94
2022-10-17T14:44:18.135Z,103513.56
2022-10-17T14:46:50.778Z,103524.47
2022-10-17T14:49:25.354Z,103542.97
2022-10-17T14:52:26.565Z,103569.22
2022-10-17T14:54:54.233Z,103578.00
2022-10-17T14:57:25.886Z,103594.59
2022-10-17T14:59:55.609Z,103614.72
2022-10-17T15:02:24.006Z,103627.59
2022-10-17T15:04:53.376Z,103644.97
2022-10-17T15:07:21.313Z,103657.03
2022-10-17T15:09:50.650Z,103669.94
2022-10-17T15:12:19.757Z,103682.00
2022-10-17T15:14:47.557Z,103687.59
2022-10-17T15:17:19.328Z,103701.38
2022-10-17T15:19:46.615Z,103698.56
2022-10-17T15:22:15.230Z,103699.34
2022-10-17T15:24:42.546Z,103699.81
2022-10-17T15:27:15.333Z,103703.81
2022-10-17T15:29:42.654Z,103705.47
2022-10-17T15:32:10.552Z,103699.03
2022-10-17T15:34:38.141Z,103701.47
2022-10-17T15:37:07.112Z,103698.22
2022-10-17T15:39:35.852Z,103691.84
2022-10-17T15:42:05.316Z,103688.22
2022-10-17T15:44:32.911Z,103675.72
2022-10-17T15:47:01.908Z,103684.19
2022-10-17T15:49:29.215Z,103674.53
2022-10-17T15:51:56.564Z,103677.44
2022-10-17T15:54:23.940Z,103685.91
2022-10-17T15:56:54.877Z,103696.38
2022-10-17T15:59:27.172Z,103706.06
2022-10-17T16:01:54.714Z,103707.69
2022-10-17T16:04:22.038Z,103714.97
2022-10-17T16:06:49.217Z,103721.78
2022-10-17T16:09:16.575Z,103730.66
2022-10-17T16:11:44.846Z,103737.13
2022-10-17T16:14:16.443Z,103752.44
2022-10-17T16:16:43.979Z,103771.78
2022-10-17T16:19:12.179Z,103777.81
2022-10-17T16:21:41.371Z,103785.47
2022-10-17T16:24:10.686Z,103798.34
2022-10-17T16:26:38.703Z,103810.47
2022-10-17T16:29:06.103Z,103816.09
2022-10-17T16:31:42.455Z,103832.19
2022-10-17T16:34:11.409Z,103826.59
2022-10-17T16:36:39.161Z,103839.50
2022-10-17T16:39:07.038Z,103850.75
2022-10-17T16:41:36.861Z,103851.56
2022-10-17T16:44:06.022Z,103860.84
2022-10-17T16:46:38.675Z,103869.28
2022-10-17T16:49:06.386Z,103879.75
2022-10-17T16:51:33.898Z,103895.06
2022-10-17T16:54:01.775Z,103901.53
2022-10-17T16:56:29.254Z,103912.00
2022-10-17T16:58:56.492Z,103922.84
2022-10-17T17:01:25.404Z,103940.56
2022-10-17T17:03:54.189Z,103938.56
2022-10-17T17:06:23.634Z,103949.03
2022-10-17T17:08:51.211Z,103962.72
2022-10-17T17:11:20.868Z,103972.38
2022-10-17T17:13:48.343Z,103988.09
2022-10-17T17:16:17.586Z,103992.91
2022-10-17T17:18:45.376Z,104002.19
2022-10-17T17:21:14.075Z,104007.03
2022-10-17T17:23:42.985Z,104019.91
2022-10-17T17:26:12.879Z,104031.22
2022-10-17T17:28:40.652Z,104041.25
2022-10-17T17:31:09.899Z,104055.75
2022-10-17T17:33:38.792Z,104055.34
2022-10-17T17:36:07.417Z,104069.03
2022-10-17T17:38:36.397Z,104065.84
2022-10-17T17:41:04.073Z,104067.88
2022-10-17T17:43:31.545Z,104064.28
2022-10-17T17:46:01.416Z,104055.84
2022-10-17T17:48:28.693Z,104065.50
2022-10-17T17:50:56.081Z,104068.31
2022-10-17T17:53:23.537Z,104069.13
2022-10-17T17:56:02.650Z,104083.59
2022-10-17T17:58:29.951Z,104093.28
2022-10-17T18:00:57.321Z,104092.88
2022-10-17T18:03:25.386Z,104109.78
2022-10-17T18:05:53.070Z,104102.97
2022-10-17T18:08:20.489Z,104101.34
2022-10-17T18:10:48.342Z,104103.34
2022-10-17T18:13:17.072Z,104102.16
2022-10-17T18:15:44.720Z,104090.09
2022-10-17T18:18:12.336Z,104091.72
2022-10-17T18:20:40.599Z,104084.41
2022-10-17T18:23:08.081Z,104072.38
2022-10-17T18:25:35.959Z,104053.06
2022-10-17T18:28:03.795Z,104021.69
2022-10-17T18:30:34.440Z,104014.44
2022-10-17T18:33:01.894Z,103996.78
2022-10-17T18:35:29.126Z,103975.84
2022-10-17T18:37:56.353Z,103961.78
2022-10-17T18:40:23.620Z,103940.50
2022-10-17T18:42:50.824Z,103926.03
2022-10-17T18:45:18.025Z,103916.78
2022-10-17T18:47:46.677Z,103897.91
2022-10-17T18:50:14.082Z,103893.91
2022-10-17T18:52:41.361Z,103897.91
2022-10-17T18:55:09.401Z,103908.34
2022-10-17T18:57:36.630Z,103907.56
2022-10-17T19:00:05.400Z,103910.78
2022-10-17T19:02:35.550Z,103916.41
2022-10-17T19:05:07.219Z,103918.00
2022-10-17T19:07:34.764Z,103920.81
2022-10-17T19:10:02.087Z,103926.84
2022-10-17T19:12:29.404Z,103933.66
2022-10-17T19:14:56.671Z,103937.69
2022-10-17T19:17:23.900Z,103952.97
2022-10-17T19:19:51.112Z,103967.81
2022-10-17T19:22:19.743Z,103982.28
2022-10-17T19:24:47.226Z,103999.16
2022-10-17T19:27:14.509Z,104012.44
2022-10-17T19:29:41.752Z,104022.47
2022-10-17T19:32:14.115Z,104020.84
2022-10-17T19:34:44.154Z,104029.31
2022-10-17T19:37:11.443Z,104036.13
2022-10-17T19:39:40.323Z,104043.38
2022-10-17T19:42:07.660Z,104043.75
2022-10-17T19:44:34.841Z,104059.44
2022-10-17T19:47:02.107Z,104069.47
2022-10-17T19:49:29.482Z,104066.66
2022-10-17T19:51:56.779Z,104075.50
2022-10-17T19:54:23.997Z,104076.31
2022-10-17T19:56:52.631Z,104080.31
2022-10-17T19:59:19.964Z,104093.97
2022-10-17T20:01:47.443Z,104091.56
2022-10-17T20:04:14.662Z,104095.16
2022-10-17T20:06:42.312Z,104085.53
2022-10-17T20:09:14.040Z,104082.72
2022-10-17T20:11:44.548Z,104088.75
2022-10-17T20:14:13.247Z,104075.44
2022-10-17T20:16:40.512Z,104056.19
2022-10-17T20:19:10.335Z,104055.34
2022-10-17T20:21:38.478Z,104039.28
2022-10-17T20:24:07.536Z,104031.66
2022-10-17T20:26:39.634Z,104004.75
2022-10-17T20:29:09.288Z,103993.09
2022-10-17T20:31:38.554Z,103964.16
2022-10-17T20:34:06.101Z,103965.34
2022-10-17T20:36:33.426Z,103945.25
2022-10-17T20:39:00.645Z,103934.00
2022-10-17T20:41:27.832Z,103926.75
2022-10-17T20:43:55.483Z,103915.16
2022-10-17T20:46:36.263Z,103905.50
2022-10-17T20:49:07.060Z,103889.81
2022-10-17T20:51:35.147Z,103871.34
2022-10-17T20:54:03.494Z,103860.53
2022-10-17T20:56:32.523Z,103839.22
2022-10-17T20:59:02.744Z,103828.38
2022-10-17T21:01:31.979Z,103821.56
2022-10-17T21:04:10.508Z,103801.91
2022-10-17T21:06:44.884Z,103781.41
2022-10-17T21:09:12.060Z,103781.81
2022-10-17T21:11:39.389Z,103764.16
2022-10-17T21:14:07.816Z,103750.91
2022-10-17T21:16:36.875Z,103728.81
2022-10-17T21:19:05.873Z,103707.94
2022-10-17T21:21:36.026Z,103688.25
2022-10-17T21:24:06.661Z,103658.56
2022-10-17T21:26:35.586Z,103639.28
2022-10-17T21:29:03.885Z,103595.91
2022-10-17T21:31:32.268Z,103565.38
2022-10-17T21:34:01.392Z,103525.66
2022-10-17T21:36:28.648Z,103492.72
2022-10-17T21:38:57.104Z,103462.97
2022-10-17T21:41:27.742Z,103430.09
2022-10-17T21:43:56.530Z,103403.97
2022-10-17T21:46:24.106Z,103378.28
2022-10-17T21:48:51.536Z,103347.78
2022-10-17T21:51:21.396Z,103333.28
2022-10-17T21:53:49.325Z,103306.81
2022-10-17T21:56:18.867Z,103299.97
2022-10-17T21:58:48.137Z,103280.69
2022-10-17T22:01:17.102Z,103253.84
2022-10-17T22:03:46.897Z,103242.63
2022-10-17T22:09:05.543Z,103234.63
2022-10-17T22:11:34.702Z,103222.53
2022-10-17T22:14:05.025Z,103221.72
2022-10-17T22:16:32.759Z,103210.09
2022-10-17T22:19:05.073Z,103216.13
2022-10-17T22:21:35.027Z,103222.53
2022-10-17T22:24:04.546Z,103218.16
2022-10-17T22:26:33.529Z,103224.16
2022-10-17T22:29:01.383Z,103222.16
2022-10-17T22:31:30.140Z,103228.66
2022-10-17T22:33:57.329Z,103239.84
2022-10-17T22:36:24.537Z,103238.28
2022-10-17T22:38:52.058Z,103250.69
2022-10-17T22:41:20.455Z,103267.53
2022-10-17T22:43:47.638Z,103264.72
2022-10-17T22:46:15.626Z,103279.63
2022-10-17T22:48:44.336Z,103292.03
2022-10-17T22:51:12.088Z,103296.47
2022-10-17T22:53:39.548Z,103310.97
2022-10-17T22:56:10.335Z,103330.63
2022-10-17T22:58:38.122Z,103355.50
2022-10-17T23:01:07.399Z,103357.50
2022-10-17T23:03:35.046Z,103383.94
2022-10-17T23:06:03.951Z,103396.84
2022-10-17T23:08:31.493Z,103417.31
2022-10-17T23:10:59.063Z,103431.34
2022-10-17T23:13:26.314Z,103459.41
2022-10-17T23:15:55.595Z,103480.25
2022-10-17T23:18:23.897Z,103504.75
2022-10-17T23:20:51.767Z,103504.75
2022-10-17T23:23:20.746Z,103520.47
2022-10-17T23:25:48.834Z,103532.94
2022-10-17T23:28:16.417Z,103547.78
2022-10-17T23:30:43.782Z,103571.09
2022-10-17T23:33:12.069Z,103592.75
2022-10-17T23:35:39.906Z,103612.06
2022-10-17T23:38:07.099Z,103636.94
2022-10-17T23:40:36.004Z,103660.59
2022-10-17T23:43:03.925Z,103689.91
2022-10-17T23:45:36.096Z,103728.03
2022-10-17T23:48:05.005Z,103770.16
2022-10-17T23:50:32.283Z,103792.66
2022-10-17T23:52:59.591Z,103819.56
2022-10-17T23:55:26.762Z,103844.03
2022-10-17T23:57:55.321Z,103866.91
